Pagrindinis puslapis
METAR-TAF:

METAR-TAF

Oro uostai :

Uagadugu oro uostas

Uagadugu, Burkina Fasas

platuma: 12-21N, ilguma: 001-31W, Aukštis: 316 m

Dabartinis oras

Ataskaita buvo paskelbta 48 minutes, ne 07:00 UTC
Vėjas 2 kt iš Šiaurės/Šiaurės Rytų
Temperatūra 18°C
Drėgmė 49%
Slėgis 1012 hPa
Matomumas: 4000 m
migla

METAR: DFFD 060700Z 02002KT 4000 HZ NSC 18/07 Q1012 NOSIG

Laikas: 07:48 (07:48 UTC)

Prognozė

Ataskaita buvo paskelbta 2 valandos ir 48 minutes, ne 05:00 UTC
Prognozė galioja nuo 06 metu 06 UTC su 07 metu 12 UTC
Vėjas 8 kt iš Rytų
Matomumas: 8000 m
Laikinai
nuo 06 metu 06 UTC su 06 metu 10 UTC
Matomumas: 2500 m
migla
Laikinai
nuo 06 metu 18 UTC su 06 metu 21 UTC
Matomumas: 4000 m
migla

TAF: DFFD 060500Z 0606/0712 08008KT 8000 NSC TEMPO 0606/0610 2500 HZ TEMPO 0618/0621 4000 HZ

Orai ataskaitas ir orų prognozės (METAR, TAF).

turimą stotys yra geltonos ir raudonos taškus žemėlapyje.

Perkelti pele per norėdami pamatyti stoties vardą.

Tada spustelėkite, norėdami matyti oro stebėjimo ir prognozės.

Norėdami pakeisti žemėlapį: spustelėkite ant žalios mygtukų su juodo kryžiaus žemyn,; žalią mygtuką su brūkšneliu, jei norite nutolinti; arba žalių rodyklių gretimoms žemėlapius.


METAR-TAF: